Terminal Aerodrome Forecast
Issued by NWS Sterling, VA

Current Version | Previous Version | Text Only | Print | Product List | Glossary Off
Versions: 1 2 3 4 5 6 7 8 9 10 11 12 13 14 15 16 17 18 19 20 21 22

000
FTUS41 KLWX 280800 AAA
TAFDCA
TAF AMD
KDCA 280858Z 2809/2906 33006KT P6SM SCT250
     FM281200 35008KT P6SM FEW050 SCT250
     FM290500 35004KT P6SM FEW250=

USA.gov is the U.S. government's official web portal to all federal, state and local government web resources and services.